sensor_id;sensor_type;location;lat;lon;timestamp;P1;durP1;ratioP1;P2;durP2;ratioP2
3101;SDS011;1561;42.666;23.392;2022-07-29T00:03:36;13.20;;;10.80;;
3101;SDS011;1561;42.666;23.392;2022-07-29T00:09:29;12.50;;;11.20;;
3101;SDS011;1561;42.666;23.392;2022-07-29T00:12:11;12.70;;;11.48;;
3101;SDS011;1561;42.666;23.392;2022-07-29T00:14:59;12.15;;;10.73;;
3101;SDS011;1561;42.666;23.392;2022-07-29T00:17:40;14.18;;;11.00;;
3101;SDS011;1561;42.666;23.392;2022-07-29T00:20:37;11.32;;;10.32;;
3101;SDS011;1561;42.666;23.392;2022-07-29T00:23:17;13.45;;;12.15;;
3101;SDS011;1561;42.666;23.392;2022-07-29T00:26:24;13.13;;;11.80;;
3101;SDS011;1561;42.666;23.392;2022-07-29T00:29:06;13.18;;;11.88;;
3101;SDS011;1561;42.666;23.392;2022-07-29T00:31:41;12.80;;;11.60;;
3101;SDS011;1561;42.666;23.392;2022-07-29T00:34:42;12.25;;;11.15;;
3101;SDS011;1561;42.666;23.392;2022-07-29T00:37:28;14.50;;;11.55;;
3101;SDS011;1561;42.666;23.392;2022-07-29T00:40:26;15.68;;;12.15;;
3101;SDS011;1561;42.666;23.392;2022-07-29T00:46:01;13.55;;;12.30;;
3101;SDS011;1561;42.666;23.392;2022-07-29T00:48:35;13.27;;;12.07;;
3101;SDS011;1561;42.666;23.392;2022-07-29T00:51:15;13.43;;;12.23;;
3101;SDS011;1561;42.666;23.392;2022-07-29T00:54:15;13.27;;;12.00;;
3101;SDS011;1561;42.666;23.392;2022-07-29T00:57:08;12.73;;;11.45;;
3101;SDS011;1561;42.666;23.392;2022-07-29T01:00:05;14.15;;;12.73;;
3101;SDS011;1561;42.666;23.392;2022-07-29T01:02:50;12.85;;;11.63;;
3101;SDS011;1561;42.666;23.392;2022-07-29T01:08:37;15.82;;;12.75;;
3101;SDS011;1561;42.666;23.392;2022-07-29T01:11:32;12.38;;;11.27;;
3101;SDS011;1561;42.666;23.392;2022-07-29T01:14:18;13.27;;;11.98;;
3101;SDS011;1561;42.666;23.392;2022-07-29T01:19:52;16.90;;;12.02;;
3101;SDS011;1561;42.666;23.392;2022-07-29T01:26:09;13.27;;;12.07;;
3101;SDS011;1561;42.666;23.392;2022-07-29T01:32:07;16.60;;;14.23;;
3101;SDS011;1561;42.666;23.392;2022-07-29T01:34:41;16.58;;;14.95;;
3101;SDS011;1561;42.666;23.392;2022-07-29T01:40:21;14.90;;;13.50;;
3101;SDS011;1561;42.666;23.392;2022-07-29T01:43:06;15.68;;;14.25;;
3101;SDS011;1561;42.666;23.392;2022-07-29T01:55:10;13.20;;;11.98;;
3101;SDS011;1561;42.666;23.392;2022-07-29T01:57:48;13.18;;;11.90;;
3101;SDS011;1561;42.666;23.392;2022-07-29T02:00:23;14.30;;;13.00;;
3101;SDS011;1561;42.666;23.392;2022-07-29T02:03:09;14.98;;;13.55;;
3101;SDS011;1561;42.666;23.392;2022-07-29T02:05:53;15.95;;;13.60;;
3101;SDS011;1561;42.666;23.392;2022-07-29T02:12:06;15.48;;;13.13;;
3101;SDS011;1561;42.666;23.392;2022-07-29T02:14:53;11.95;;;10.80;;
3101;SDS011;1561;42.666;23.392;2022-07-29T02:17:39;12.75;;;11.45;;
3101;SDS011;1561;42.666;23.392;2022-07-29T02:20:28;13.02;;;11.18;;
3101;SDS011;1561;42.666;23.392;2022-07-29T02:23:39;12.48;;;11.27;;
3101;SDS011;1561;42.666;23.392;2022-07-29T02:26:11;12.60;;;11.05;;
3101;SDS011;1561;42.666;23.392;2022-07-29T02:29:15;12.20;;;11.07;;
3101;SDS011;1561;42.666;23.392;2022-07-29T02:31:51;13.70;;;12.35;;
3101;SDS011;1561;42.666;23.392;2022-07-29T02:34:46;15.00;;;12.27;;
3101;SDS011;1561;42.666;23.392;2022-07-29T02:37:45;12.98;;;11.63;;
3101;SDS011;1561;42.666;23.392;2022-07-29T02:40:38;15.70;;;11.68;;
3101;SDS011;1561;42.666;23.392;2022-07-29T02:43:35;13.20;;;11.93;;
3101;SDS011;1561;42.666;23.392;2022-07-29T02:52:56;11.95;;;10.95;;
3101;SDS011;1561;42.666;23.392;2022-07-29T02:55:48;14.90;;;13.45;;
3101;SDS011;1561;42.666;23.392;2022-07-29T02:58:37;14.35;;;13.05;;
3101;SDS011;1561;42.666;23.392;2022-07-29T03:01:30;14.63;;;12.88;;
3101;SDS011;1561;42.666;23.392;2022-07-29T03:04:23;16.85;;;15.15;;
3101;SDS011;1561;42.666;23.392;2022-07-29T03:19:03;19.10;;;17.20;;
3101;SDS011;1561;42.666;23.392;2022-07-29T03:22:00;19.15;;;17.25;;
3101;SDS011;1561;42.666;23.392;2022-07-29T03:24:47;22.80;;;17.92;;
3101;SDS011;1561;42.666;23.392;2022-07-29T03:27:41;22.13;;;19.92;;
3101;SDS011;1561;42.666;23.392;2022-07-29T03:30:28;21.38;;;18.90;;
3101;SDS011;1561;42.666;23.392;2022-07-29T03:33:49;20.10;;;18.05;;
3101;SDS011;1561;42.666;23.392;2022-07-29T03:36:35;22.23;;;19.15;;
3101;SDS011;1561;42.666;23.392;2022-07-29T03:39:14;22.55;;;20.33;;
3101;SDS011;1561;42.666;23.392;2022-07-29T03:42:26;25.05;;;21.65;;
3101;SDS011;1561;42.666;23.392;2022-07-29T03:48:35;28.98;;;20.30;;
3101;SDS011;1561;42.666;23.392;2022-07-29T03:54:43;20.15;;;18.08;;
3101;SDS011;1561;42.666;23.392;2022-07-29T03:57:19;19.70;;;17.45;;
3101;SDS011;1561;42.666;23.392;2022-07-29T04:00:10;18.13;;;16.42;;
3101;SDS011;1561;42.666;23.392;2022-07-29T04:02:59;16.55;;;15.05;;
3101;SDS011;1561;42.666;23.392;2022-07-29T04:06:02;17.20;;;14.13;;
3101;SDS011;1561;42.666;23.392;2022-07-29T04:08:52;16.63;;;14.45;;
3101;SDS011;1561;42.666;23.392;2022-07-29T04:11:38;16.63;;;14.93;;
3101;SDS011;1561;42.666;23.392;2022-07-29T04:15:00;15.65;;;13.90;;
3101;SDS011;1561;42.666;23.392;2022-07-29T04:18:22;15.68;;;13.88;;
3101;SDS011;1561;42.666;23.392;2022-07-29T04:27:23;12.98;;;11.88;;
3101;SDS011;1561;42.666;23.392;2022-07-29T04:30:23;13.80;;;12.60;;
3101;SDS011;1561;42.666;23.392;2022-07-29T04:36:13;17.65;;;15.88;;
3101;SDS011;1561;42.666;23.392;2022-07-29T04:39:05;21.30;;;19.20;;
3101;SDS011;1561;42.666;23.392;2022-07-29T04:44:50;44.15;;;31.10;;
3101;SDS011;1561;42.666;23.392;2022-07-29T04:47:53;14.90;;;13.35;;
3101;SDS011;1561;42.666;23.392;2022-07-29T04:50:33;12.73;;;11.68;;
3101;SDS011;1561;42.666;23.392;2022-07-29T04:53:33;13.77;;;12.25;;
3101;SDS011;1561;42.666;23.392;2022-07-29T04:56:16;12.63;;;11.52;;
3101;SDS011;1561;42.666;23.392;2022-07-29T05:01:55;12.73;;;11.48;;
3101;SDS011;1561;42.666;23.392;2022-07-29T05:04:44;12.27;;;10.98;;
3101;SDS011;1561;42.666;23.392;2022-07-29T05:07:14;14.20;;;10.80;;
3101;SDS011;1561;42.666;23.392;2022-07-29T05:09:48;30.23;;;11.30;;
3101;SDS011;1561;42.666;23.392;2022-07-29T05:12:22;12.15;;;11.05;;
3101;SDS011;1561;42.666;23.392;2022-07-29T05:17:57;13.52;;;12.15;;
3101;SDS011;1561;42.666;23.392;2022-07-29T05:20:40;13.18;;;11.98;;
3101;SDS011;1561;42.666;23.392;2022-07-29T05:23:22;14.70;;;13.20;;
3101;SDS011;1561;42.666;23.392;2022-07-29T05:25:56;13.55;;;12.23;;
3101;SDS011;1561;42.666;23.392;2022-07-29T05:28:36;13.63;;;12.27;;
3101;SDS011;1561;42.666;23.392;2022-07-29T05:31:17;11.68;;;10.68;;
3101;SDS011;1561;42.666;23.392;2022-07-29T05:33:45;10.85;;;9.82;;
3101;SDS011;1561;42.666;23.392;2022-07-29T05:36:16;10.50;;;9.25;;
3101;SDS011;1561;42.666;23.392;2022-07-29T05:39:25;13.27;;;9.77;;
3101;SDS011;1561;42.666;23.392;2022-07-29T05:41:58;10.40;;;9.30;;
3101;SDS011;1561;42.666;23.392;2022-07-29T05:44:28;9.98;;;9.18;;
3101;SDS011;1561;42.666;23.392;2022-07-29T05:50:05;10.50;;;9.65;;
3101;SDS011;1561;42.666;23.392;2022-07-29T05:52:38;10.25;;;9.30;;
3101;SDS011;1561;42.666;23.392;2022-07-29T05:55:21;10.68;;;9.77;;
3101;SDS011;1561;42.666;23.392;2022-07-29T05:57:53;9.50;;;8.35;;
3101;SDS011;1561;42.666;23.392;2022-07-29T06:00:31;12.05;;;8.38;;
3101;SDS011;1561;42.666;23.392;2022-07-29T06:03:15;10.00;;;9.00;;
3101;SDS011;1561;42.666;23.392;2022-07-29T06:05:43;9.10;;;8.30;;
3101;SDS011;1561;42.666;23.392;2022-07-29T06:08:21;10.50;;;9.65;;
3101;SDS011;1561;42.666;23.392;2022-07-29T06:11:02;10.50;;;9.20;;
3101;SDS011;1561;42.666;23.392;2022-07-29T06:13:35;14.95;;;13.23;;
3101;SDS011;1561;42.666;23.392;2022-07-29T06:16:09;11.40;;;10.10;;
3101;SDS011;1561;42.666;23.392;2022-07-29T06:18:47;10.00;;;9.07;;
3101;SDS011;1561;42.666;23.392;2022-07-29T06:21:21;10.38;;;9.57;;
3101;SDS011;1561;42.666;23.392;2022-07-29T06:23:56;9.93;;;8.85;;
3101;SDS011;1561;42.666;23.392;2022-07-29T06:26:44;10.98;;;9.27;;
3101;SDS011;1561;42.666;23.392;2022-07-29T06:29:18;10.02;;;8.43;;
3101;SDS011;1561;42.666;23.392;2022-07-29T06:31:52;10.10;;;9.30;;
3101;SDS011;1561;42.666;23.392;2022-07-29T06:34:37;10.25;;;9.45;;
3101;SDS011;1561;42.666;23.392;2022-07-29T06:37:09;9.60;;;8.82;;
3101;SDS011;1561;42.666;23.392;2022-07-29T06:39:47;11.43;;;8.63;;
3101;SDS011;1561;42.666;23.392;2022-07-29T06:42:41;9.00;;;8.15;;
3101;SDS011;1561;42.666;23.392;2022-07-29T06:45:12;8.75;;;8.05;;
3101;SDS011;1561;42.666;23.392;2022-07-29T06:47:52;9.25;;;8.38;;
3101;SDS011;1561;42.666;23.392;2022-07-29T06:50:33;8.82;;;8.13;;
3101;SDS011;1561;42.666;23.392;2022-07-29T06:53:12;7.82;;;7.28;;
3101;SDS011;1561;42.666;23.392;2022-07-29T06:55:46;8.80;;;7.93;;
3101;SDS011;1561;42.666;23.392;2022-07-29T06:58:23;8.52;;;7.35;;
3101;SDS011;1561;42.666;23.392;2022-07-29T07:00:56;8.20;;;7.43;;
3101;SDS011;1561;42.666;23.392;2022-07-29T07:03:32;8.15;;;7.53;;
3101;SDS011;1561;42.666;23.392;2022-07-29T07:06:05;6.65;;;6.20;;
3101;SDS011;1561;42.666;23.392;2022-07-29T07:08:37;7.55;;;6.45;;
3101;SDS011;1561;42.666;23.392;2022-07-29T07:11:11;6.63;;;6.22;;
3101;SDS011;1561;42.666;23.392;2022-07-29T07:13:45;6.50;;;6.00;;
3101;SDS011;1561;42.666;23.392;2022-07-29T07:16:21;7.40;;;5.85;;
3101;SDS011;1561;42.666;23.392;2022-07-29T07:18:53;6.22;;;5.80;;
3101;SDS011;1561;42.666;23.392;2022-07-29T07:24:28;7.07;;;6.38;;
3101;SDS011;1561;42.666;23.392;2022-07-29T07:26:57;6.72;;;6.13;;
3101;SDS011;1561;42.666;23.392;2022-07-29T07:29:25;6.13;;;5.78;;
3101;SDS011;1561;42.666;23.392;2022-07-29T07:31:54;6.88;;;6.20;;
3101;SDS011;1561;42.666;23.392;2022-07-29T07:34:22;6.07;;;5.65;;
3101;SDS011;1561;42.666;23.392;2022-07-29T07:37:05;7.15;;;6.45;;
3101;SDS011;1561;42.666;23.392;2022-07-29T07:39:34;6.07;;;5.68;;
3101;SDS011;1561;42.666;23.392;2022-07-29T07:42:36;7.38;;;6.60;;
3101;SDS011;1561;42.666;23.392;2022-07-29T07:45:08;6.70;;;6.20;;
3101;SDS011;1561;42.666;23.392;2022-07-29T07:47:36;6.13;;;5.63;;
3101;SDS011;1561;42.666;23.392;2022-07-29T07:50:09;6.43;;;5.97;;
3101;SDS011;1561;42.666;23.392;2022-07-29T07:52:48;12.88;;;6.07;;
3101;SDS011;1561;42.666;23.392;2022-07-29T07:55:18;6.45;;;5.95;;
3101;SDS011;1561;42.666;23.392;2022-07-29T07:57:50;6.50;;;5.90;;
3101;SDS011;1561;42.666;23.392;2022-07-29T08:00:18;6.03;;;5.45;;
3101;SDS011;1561;42.666;23.392;2022-07-29T08:02:48;5.50;;;5.03;;
3101;SDS011;1561;42.666;23.392;2022-07-29T08:05:16;6.20;;;5.70;;
3101;SDS011;1561;42.666;23.392;2022-07-29T08:07:45;5.85;;;5.35;;
3101;SDS011;1561;42.666;23.392;2022-07-29T08:10:23;5.28;;;4.97;;
3101;SDS011;1561;42.666;23.392;2022-07-29T08:13:08;5.40;;;4.90;;
3101;SDS011;1561;42.666;23.392;2022-07-29T08:15:55;5.10;;;4.80;;
3101;SDS011;1561;42.666;23.392;2022-07-29T08:18:27;5.47;;;4.38;;
3101;SDS011;1561;42.666;23.392;2022-07-29T08:21:04;5.13;;;4.82;;
3101;SDS011;1561;42.666;23.392;2022-07-29T08:23:50;4.85;;;4.55;;
3101;SDS011;1561;42.666;23.392;2022-07-29T08:26:19;8.48;;;7.78;;
3101;SDS011;1561;42.666;23.392;2022-07-29T08:28:47;5.80;;;5.40;;
3101;SDS011;1561;42.666;23.392;2022-07-29T08:31:16;4.57;;;4.32;;
3101;SDS011;1561;42.666;23.392;2022-07-29T08:33:47;4.80;;;4.22;;
3101;SDS011;1561;42.666;23.392;2022-07-29T08:36:23;4.82;;;4.43;;
3101;SDS011;1561;42.666;23.392;2022-07-29T08:39:02;4.97;;;4.57;;
3101;SDS011;1561;42.666;23.392;2022-07-29T08:41:33;7.45;;;6.85;;
3101;SDS011;1561;42.666;23.392;2022-07-29T08:44:04;5.05;;;4.65;;
3101;SDS011;1561;42.666;23.392;2022-07-29T08:46:31;5.00;;;4.60;;
3101;SDS011;1561;42.666;23.392;2022-07-29T08:49:01;4.65;;;4.35;;
3101;SDS011;1561;42.666;23.392;2022-07-29T08:51:40;5.95;;;4.53;;
3101;SDS011;1561;42.666;23.392;2022-07-29T08:54:10;4.40;;;4.10;;
3101;SDS011;1561;42.666;23.392;2022-07-29T08:56:42;4.63;;;4.32;;
3101;SDS011;1561;42.666;23.392;2022-07-29T08:59:20;4.60;;;4.28;;
3101;SDS011;1561;42.666;23.392;2022-07-29T09:01:53;7.40;;;4.20;;
3101;SDS011;1561;42.666;23.392;2022-07-29T09:04:29;10.82;;;9.73;;
3101;SDS011;1561;42.666;23.392;2022-07-29T09:07:00;4.93;;;4.53;;
3101;SDS011;1561;42.666;23.392;2022-07-29T09:09:39;7.07;;;4.93;;
3101;SDS011;1561;42.666;23.392;2022-07-29T09:12:08;4.60;;;4.30;;
3101;SDS011;1561;42.666;23.392;2022-07-29T09:14:47;5.45;;;5.05;;
3101;SDS011;1561;42.666;23.392;2022-07-29T09:17:40;5.82;;;5.32;;
3101;SDS011;1561;42.666;23.392;2022-07-29T09:20:12;5.78;;;5.47;;
3101;SDS011;1561;42.666;23.392;2022-07-29T09:22:44;5.47;;;5.07;;
3101;SDS011;1561;42.666;23.392;2022-07-29T09:25:15;5.90;;;5.50;;
3101;SDS011;1561;42.666;23.392;2022-07-29T09:28:05;5.57;;;5.13;;
3101;SDS011;1561;42.666;23.392;2022-07-29T09:30:49;9.70;;;5.40;;
3101;SDS011;1561;42.666;23.392;2022-07-29T09:33:30;5.40;;;5.00;;
3101;SDS011;1561;42.666;23.392;2022-07-29T09:36:03;6.22;;;5.72;;
3101;SDS011;1561;42.666;23.392;2022-07-29T09:38:35;6.32;;;5.78;;
3101;SDS011;1561;42.666;23.392;2022-07-29T09:41:08;5.32;;;4.93;;
3101;SDS011;1561;42.666;23.392;2022-07-29T09:43:37;5.70;;;5.20;;
3101;SDS011;1561;42.666;23.392;2022-07-29T09:46:11;5.82;;;5.32;;
3101;SDS011;1561;42.666;23.392;2022-07-29T09:48:39;5.10;;;4.80;;
3101;SDS011;1561;42.666;23.392;2022-07-29T09:51:16;5.55;;;5.15;;
3101;SDS011;1561;42.666;23.392;2022-07-29T09:53:49;5.22;;;4.88;;
3101;SDS011;1561;42.666;23.392;2022-07-29T09:56:39;5.05;;;4.75;;
3101;SDS011;1561;42.666;23.392;2022-07-29T09:59:08;4.75;;;4.45;;
3101;SDS011;1561;42.666;23.392;2022-07-29T10:01:36;4.38;;;4.07;;
3101;SDS011;1561;42.666;23.392;2022-07-29T10:04:07;4.65;;;4.35;;
3101;SDS011;1561;42.666;23.392;2022-07-29T10:06:43;4.47;;;4.18;;
3101;SDS011;1561;42.666;23.392;2022-07-29T10:09:25;5.15;;;4.80;;
3101;SDS011;1561;42.666;23.392;2022-07-29T10:14:51;4.60;;;4.30;;
3101;SDS011;1561;42.666;23.392;2022-07-29T10:17:24;10.88;;;5.82;;
3101;SDS011;1561;42.666;23.392;2022-07-29T10:20:05;5.28;;;4.95;;
3101;SDS011;1561;42.666;23.392;2022-07-29T10:22:39;5.38;;;4.97;;
3101;SDS011;1561;42.666;23.392;2022-07-29T10:25:26;4.70;;;4.40;;
3101;SDS011;1561;42.666;23.392;2022-07-29T10:28:01;4.13;;;3.83;;
3101;SDS011;1561;42.666;23.392;2022-07-29T10:30:37;4.75;;;4.45;;
3101;SDS011;1561;42.666;23.392;2022-07-29T10:33:25;4.55;;;4.20;;
3101;SDS011;1561;42.666;23.392;2022-07-29T10:36:15;5.45;;;4.95;;
3101;SDS011;1561;42.666;23.392;2022-07-29T10:39:10;4.88;;;4.47;;
3101;SDS011;1561;42.666;23.392;2022-07-29T10:42:01;4.43;;;4.13;;
3101;SDS011;1561;42.666;23.392;2022-07-29T10:44:40;4.32;;;4.03;;
3101;SDS011;1561;42.666;23.392;2022-07-29T10:47:25;4.85;;;4.55;;
3101;SDS011;1561;42.666;23.392;2022-07-29T10:50:04;5.70;;;5.25;;
3101;SDS011;1561;42.666;23.392;2022-07-29T10:52:52;5.05;;;4.18;;
3101;SDS011;1561;42.666;23.392;2022-07-29T10:55:33;5.03;;;4.72;;
3101;SDS011;1561;42.666;23.392;2022-07-29T10:58:13;4.85;;;4.55;;
3101;SDS011;1561;42.666;23.392;2022-07-29T11:04:14;4.88;;;4.47;;
3101;SDS011;1561;42.666;23.392;2022-07-29T11:07:09;5.63;;;5.13;;
3101;SDS011;1561;42.666;23.392;2022-07-29T11:09:43;5.22;;;4.93;;
3101;SDS011;1561;42.666;23.392;2022-07-29T11:12:46;5.38;;;4.80;;
3101;SDS011;1561;42.666;23.392;2022-07-29T11:15:27;5.90;;;5.40;;
3101;SDS011;1561;42.666;23.392;2022-07-29T11:18:05;5.80;;;5.35;;
3101;SDS011;1561;42.666;23.392;2022-07-29T11:20:39;5.65;;;5.25;;
3101;SDS011;1561;42.666;23.392;2022-07-29T11:26:15;7.95;;;7.35;;
3101;SDS011;1561;42.666;23.392;2022-07-29T11:28:52;6.15;;;5.72;;
3101;SDS011;1561;42.666;23.392;2022-07-29T11:31:42;6.03;;;5.45;;
3101;SDS011;1561;42.666;23.392;2022-07-29T11:34:25;6.28;;;5.80;;
3101;SDS011;1561;42.666;23.392;2022-07-29T11:37:25;5.95;;;5.45;;
3101;SDS011;1561;42.666;23.392;2022-07-29T11:40:21;6.47;;;6.07;;
3101;SDS011;1561;42.666;23.392;2022-07-29T11:46:01;8.38;;;7.40;;
3101;SDS011;1561;42.666;23.392;2022-07-29T11:48:43;6.30;;;5.90;;
3101;SDS011;1561;42.666;23.392;2022-07-29T11:51:16;6.55;;;6.10;;
3101;SDS011;1561;42.666;23.392;2022-07-29T11:53:54;11.75;;;10.63;;
3101;SDS011;1561;42.666;23.392;2022-07-29T11:56:27;6.53;;;5.88;;
3101;SDS011;1561;42.666;23.392;2022-07-29T11:59:07;6.55;;;6.15;;
3101;SDS011;1561;42.666;23.392;2022-07-29T12:01:52;6.57;;;6.18;;
3101;SDS011;1561;42.666;23.392;2022-07-29T12:04:22;6.78;;;6.38;;
3101;SDS011;1561;42.666;23.392;2022-07-29T12:06:54;6.30;;;5.85;;
3101;SDS011;1561;42.666;23.392;2022-07-29T12:09:34;6.38;;;5.95;;
3101;SDS011;1561;42.666;23.392;2022-07-29T12:12:19;7.07;;;6.40;;
3101;SDS011;1561;42.666;23.392;2022-07-29T12:14:59;6.50;;;6.10;;
3101;SDS011;1561;42.666;23.392;2022-07-29T12:17:46;7.03;;;6.43;;
3101;SDS011;1561;42.666;23.392;2022-07-29T12:23:35;7.13;;;6.53;;
3101;SDS011;1561;42.666;23.392;2022-07-29T12:29:42;7.22;;;6.63;;
3101;SDS011;1561;42.666;23.392;2022-07-29T12:32:13;7.55;;;6.47;;
3101;SDS011;1561;42.666;23.392;2022-07-29T12:34:44;7.57;;;6.97;;
3101;SDS011;1561;42.666;23.392;2022-07-29T12:37:21;7.55;;;7.05;;
3101;SDS011;1561;42.666;23.392;2022-07-29T12:40:04;11.90;;;10.75;;
3101;SDS011;1561;42.666;23.392;2022-07-29T12:42:38;10.50;;;7.28;;
3101;SDS011;1561;42.666;23.392;2022-07-29T12:45:33;8.07;;;7.18;;
3101;SDS011;1561;42.666;23.392;2022-07-29T12:48:10;8.25;;;7.47;;
3101;SDS011;1561;42.666;23.392;2022-07-29T12:50:54;7.60;;;7.20;;
3101;SDS011;1561;42.666;23.392;2022-07-29T12:53:24;8.18;;;7.60;;
3101;SDS011;1561;42.666;23.392;2022-07-29T12:55:54;7.10;;;6.60;;
3101;SDS011;1561;42.666;23.392;2022-07-29T12:58:31;7.28;;;6.88;;
3101;SDS011;1561;42.666;23.392;2022-07-29T13:01:10;7.05;;;6.55;;
3101;SDS011;1561;42.666;23.392;2022-07-29T13:03:50;8.48;;;6.90;;
3101;SDS011;1561;42.666;23.392;2022-07-29T13:06:36;7.78;;;7.28;;
3101;SDS011;1561;42.666;23.392;2022-07-29T13:09:09;7.35;;;6.85;;
3101;SDS011;1561;42.666;23.392;2022-07-29T13:11:44;7.15;;;6.70;;
3101;SDS011;1561;42.666;23.392;2022-07-29T13:14:33;7.28;;;6.70;;
3101;SDS011;1561;42.666;23.392;2022-07-29T13:17:22;7.65;;;7.15;;
3101;SDS011;1561;42.666;23.392;2022-07-29T13:20:04;7.22;;;6.72;;
3101;SDS011;1561;42.666;23.392;2022-07-29T13:22:39;6.60;;;6.07;;
3101;SDS011;1561;42.666;23.392;2022-07-29T13:25:08;7.38;;;6.78;;
3101;SDS011;1561;42.666;23.392;2022-07-29T13:27:50;7.38;;;6.88;;
3101;SDS011;1561;42.666;23.392;2022-07-29T13:30:47;6.43;;;6.03;;
3101;SDS011;1561;42.666;23.392;2022-07-29T13:33:31;15.60;;;13.95;;
3101;SDS011;1561;42.666;23.392;2022-07-29T13:36:03;8.85;;;8.10;;
3101;SDS011;1561;42.666;23.392;2022-07-29T13:38:33;6.72;;;6.30;;
3101;SDS011;1561;42.666;23.392;2022-07-29T13:41:08;6.97;;;6.47;;
3101;SDS011;1561;42.666;23.392;2022-07-29T13:43:35;7.97;;;7.32;;
3101;SDS011;1561;42.666;23.392;2022-07-29T13:46:08;7.05;;;6.55;;
3101;SDS011;1561;42.666;23.392;2022-07-29T13:48:49;7.13;;;6.63;;
3101;SDS011;1561;42.666;23.392;2022-07-29T13:51:22;7.50;;;7.00;;
3101;SDS011;1561;42.666;23.392;2022-07-29T13:53:49;7.28;;;6.88;;
3101;SDS011;1561;42.666;23.392;2022-07-29T13:56:29;7.30;;;6.80;;
3101;SDS011;1561;42.666;23.392;2022-07-29T13:59:02;8.07;;;7.32;;
3101;SDS011;1561;42.666;23.392;2022-07-29T14:01:31;7.93;;;7.32;;
3101;SDS011;1561;42.666;23.392;2022-07-29T14:04:21;7.20;;;6.60;;
3101;SDS011;1561;42.666;23.392;2022-07-29T14:07:08;9.70;;;8.80;;
3101;SDS011;1561;42.666;23.392;2022-07-29T14:09:42;6.90;;;6.35;;
3101;SDS011;1561;42.666;23.392;2022-07-29T14:12:21;7.38;;;6.88;;
3101;SDS011;1561;42.666;23.392;2022-07-29T14:15:05;7.18;;;6.68;;
3101;SDS011;1561;42.666;23.392;2022-07-29T14:17:37;7.10;;;6.60;;
3101;SDS011;1561;42.666;23.392;2022-07-29T14:20:21;6.93;;;6.43;;
3101;SDS011;1561;42.666;23.392;2022-07-29T14:23:03;7.53;;;7.03;;
3101;SDS011;1561;42.666;23.392;2022-07-29T14:25:59;7.40;;;6.90;;
3101;SDS011;1561;42.666;23.392;2022-07-29T14:28:39;6.85;;;6.35;;
3101;SDS011;1561;42.666;23.392;2022-07-29T14:31:32;6.90;;;6.40;;
3101;SDS011;1561;42.666;23.392;2022-07-29T14:34:05;7.40;;;6.90;;
3101;SDS011;1561;42.666;23.392;2022-07-29T14:36:55;8.00;;;7.40;;
3101;SDS011;1561;42.666;23.392;2022-07-29T14:39:34;7.18;;;6.68;;
3101;SDS011;1561;42.666;23.392;2022-07-29T14:42:08;8.00;;;7.20;;
3101;SDS011;1561;42.666;23.392;2022-07-29T14:44:43;7.72;;;7.13;;
3101;SDS011;1561;42.666;23.392;2022-07-29T14:47:13;8.27;;;7.38;;
3101;SDS011;1561;42.666;23.392;2022-07-29T14:49:48;7.53;;;7.03;;
3101;SDS011;1561;42.666;23.392;2022-07-29T14:52:29;7.82;;;7.32;;
3101;SDS011;1561;42.666;23.392;2022-07-29T14:55:01;8.50;;;7.65;;
3101;SDS011;1561;42.666;23.392;2022-07-29T14:57:32;7.13;;;6.68;;
3101;SDS011;1561;42.666;23.392;2022-07-29T15:00:09;8.10;;;7.30;;
3101;SDS011;1561;42.666;23.392;2022-07-29T15:02:51;8.57;;;7.88;;
3101;SDS011;1561;42.666;23.392;2022-07-29T15:05:26;8.88;;;8.10;;
3101;SDS011;1561;42.666;23.392;2022-07-29T15:08:01;8.32;;;7.70;;
3101;SDS011;1561;42.666;23.392;2022-07-29T15:10:39;8.93;;;8.13;;
3101;SDS011;1561;42.666;23.392;2022-07-29T15:13:11;8.35;;;7.70;;
3101;SDS011;1561;42.666;23.392;2022-07-29T15:15:47;7.97;;;7.47;;
3101;SDS011;1561;42.666;23.392;2022-07-29T15:18:19;7.90;;;7.35;;
3101;SDS011;1561;42.666;23.392;2022-07-29T15:20:52;7.70;;;7.20;;
3101;SDS011;1561;42.666;23.392;2022-07-29T15:23:27;7.00;;;6.50;;
3101;SDS011;1561;42.666;23.392;2022-07-29T15:25:57;6.50;;;6.10;;
3101;SDS011;1561;42.666;23.392;2022-07-29T15:28:25;6.38;;;5.88;;
3101;SDS011;1561;42.666;23.392;2022-07-29T15:30:58;8.07;;;7.47;;
3101;SDS011;1561;42.666;23.392;2022-07-29T15:33:41;7.68;;;6.97;;
3101;SDS011;1561;42.666;23.392;2022-07-29T15:36:19;7.75;;;7.05;;
3101;SDS011;1561;42.666;23.392;2022-07-29T15:41:52;7.50;;;7.00;;
3101;SDS011;1561;42.666;23.392;2022-07-29T15:44:26;8.20;;;7.30;;
3101;SDS011;1561;42.666;23.392;2022-07-29T15:47:04;6.93;;;6.32;;
3101;SDS011;1561;42.666;23.392;2022-07-29T15:49:34;6.80;;;6.20;;
3101;SDS011;1561;42.666;23.392;2022-07-29T15:52:09;8.20;;;7.53;;
3101;SDS011;1561;42.666;23.392;2022-07-29T15:55:02;7.38;;;6.78;;
3101;SDS011;1561;42.666;23.392;2022-07-29T15:57:46;7.00;;;6.50;;
3101;SDS011;1561;42.666;23.392;2022-07-29T16:00:17;6.93;;;6.32;;
3101;SDS011;1561;42.666;23.392;2022-07-29T16:02:50;6.50;;;6.10;;
3101;SDS011;1561;42.666;23.392;2022-07-29T16:05:24;6.25;;;5.85;;
3101;SDS011;1561;42.666;23.392;2022-07-29T16:07:56;6.30;;;5.80;;
3101;SDS011;1561;42.666;23.392;2022-07-29T16:10:32;6.47;;;6.07;;
3101;SDS011;1561;42.666;23.392;2022-07-29T16:13:19;6.68;;;5.95;;
3101;SDS011;1561;42.666;23.392;2022-07-29T16:16:02;5.97;;;5.57;;
3101;SDS011;1561;42.666;23.392;2022-07-29T16:18:49;7.45;;;6.82;;
3101;SDS011;1561;42.666;23.392;2022-07-29T16:21:20;6.72;;;6.22;;
3101;SDS011;1561;42.666;23.392;2022-07-29T16:23:50;6.38;;;5.82;;
3101;SDS011;1561;42.666;23.392;2022-07-29T16:26:38;6.50;;;6.10;;
3101;SDS011;1561;42.666;23.392;2022-07-29T16:29:11;7.13;;;6.55;;
3101;SDS011;1561;42.666;23.392;2022-07-29T16:31:43;6.47;;;6.07;;
3101;SDS011;1561;42.666;23.392;2022-07-29T16:34:14;7.28;;;6.57;;
3101;SDS011;1561;42.666;23.392;2022-07-29T16:36:48;7.60;;;6.35;;
3101;SDS011;1561;42.666;23.392;2022-07-29T16:39:26;6.22;;;5.72;;
3101;SDS011;1561;42.666;23.392;2022-07-29T16:45:17;7.53;;;6.93;;
3101;SDS011;1561;42.666;23.392;2022-07-29T16:48:15;7.97;;;7.20;;
3101;SDS011;1561;42.666;23.392;2022-07-29T16:56:32;7.88;;;7.28;;
3101;SDS011;1561;42.666;23.392;2022-07-29T17:04:50;7.63;;;6.80;;
3101;SDS011;1561;42.666;23.392;2022-07-29T17:07:28;7.25;;;6.53;;
3101;SDS011;1561;42.666;23.392;2022-07-29T17:10:06;7.95;;;7.25;;
3101;SDS011;1561;42.666;23.392;2022-07-29T17:12:44;6.20;;;5.80;;
3101;SDS011;1561;42.666;23.392;2022-07-29T17:18:13;8.10;;;7.40;;
3101;SDS011;1561;42.666;23.392;2022-07-29T17:21:08;6.85;;;6.35;;
3101;SDS011;1561;42.666;23.392;2022-07-29T17:23:55;19.20;;;14.85;;
3101;SDS011;1561;42.666;23.392;2022-07-29T17:26:33;6.95;;;6.40;;
3101;SDS011;1561;42.666;23.392;2022-07-29T17:29:34;7.35;;;6.57;;
3101;SDS011;1561;42.666;23.392;2022-07-29T17:32:13;7.35;;;6.80;;
3101;SDS011;1561;42.666;23.392;2022-07-29T17:34:59;7.53;;;6.93;;
3101;SDS011;1561;42.666;23.392;2022-07-29T17:37:49;7.90;;;7.30;;
3101;SDS011;1561;42.666;23.392;2022-07-29T17:40:51;6.80;;;6.22;;
3101;SDS011;1561;42.666;23.392;2022-07-29T17:43:37;6.70;;;6.20;;
3101;SDS011;1561;42.666;23.392;2022-07-29T17:46:17;27.58;;;19.08;;
3101;SDS011;1561;42.666;23.392;2022-07-29T17:51:50;6.55;;;6.13;;
3101;SDS011;1561;42.666;23.392;2022-07-29T17:54:43;7.25;;;6.55;;
3101;SDS011;1561;42.666;23.392;2022-07-29T17:57:18;8.18;;;7.00;;
3101;SDS011;1561;42.666;23.392;2022-07-29T17:59:50;7.40;;;6.50;;
3101;SDS011;1561;42.666;23.392;2022-07-29T18:02:21;6.60;;;6.00;;
3101;SDS011;1561;42.666;23.392;2022-07-29T18:08:03;7.05;;;6.45;;
3101;SDS011;1561;42.666;23.392;2022-07-29T18:10:38;8.35;;;6.45;;
3101;SDS011;1561;42.666;23.392;2022-07-29T18:13:14;7.32;;;6.32;;
3101;SDS011;1561;42.666;23.392;2022-07-29T18:15:50;8.02;;;7.25;;
3101;SDS011;1561;42.666;23.392;2022-07-29T18:18:24;7.47;;;6.75;;
3101;SDS011;1561;42.666;23.392;2022-07-29T18:21:26;7.93;;;7.22;;
3101;SDS011;1561;42.666;23.392;2022-07-29T18:24:02;6.88;;;6.47;;